createdAt,value
2023-05-23T00:01:46.864Z,8.75
2023-05-23T00:04:18.878Z,10.30
2023-05-23T00:06:50.647Z,10.32
2023-05-23T00:09:19.451Z,9.40
2023-05-23T00:11:47.873Z,8.85
2023-05-23T00:14:18.105Z,8.98
2023-05-23T00:16:49.699Z,9.27
2023-05-23T00:19:18.587Z,9.95
2023-05-23T00:21:49.561Z,9.55
2023-05-23T00:24:18.770Z,9.40
2023-05-23T00:26:47.553Z,10.43
2023-05-23T00:29:17.795Z,10.10
2023-05-23T00:31:47.952Z,9.32
2023-05-23T00:34:18.670Z,10.43
2023-05-23T00:36:50.596Z,10.23
2023-05-23T00:39:20.214Z,9.70
2023-05-23T00:41:51.913Z,10.23
2023-05-23T00:44:21.560Z,11.27
2023-05-23T00:46:53.951Z,10.18
2023-05-23T00:49:23.791Z,10.07
2023-05-23T00:51:52.940Z,10.30
2023-05-23T00:54:24.323Z,11.00
2023-05-23T00:56:52.841Z,11.93
2023-05-23T00:59:24.027Z,12.00
2023-05-23T01:01:54.690Z,10.77
2023-05-23T01:04:26.387Z,11.07
2023-05-23T01:06:56.150Z,11.18
2023-05-23T01:09:25.674Z,10.82
2023-05-23T01:12:00.781Z,10.77
2023-05-23T01:14:32.098Z,12.45
2023-05-23T01:17:04.942Z,12.75
2023-05-23T01:19:46.576Z,12.45
2023-05-23T01:22:25.433Z,12.73
2023-05-23T01:24:57.127Z,11.27
2023-05-23T01:27:33.644Z,13.43
2023-05-23T01:30:05.618Z,12.05
2023-05-23T01:32:34.407Z,12.77
2023-05-23T01:35:03.398Z,12.07
2023-05-23T01:37:31.858Z,11.90
2023-05-23T01:40:00.757Z,11.82
2023-05-23T01:42:29.222Z,11.90
2023-05-23T01:44:59.813Z,12.45
2023-05-23T01:47:29.756Z,12.70
2023-05-23T01:50:03.712Z,12.35
2023-05-23T01:52:35.082Z,13.60
2023-05-23T01:55:04.839Z,12.25
2023-05-23T01:57:33.458Z,12.85
2023-05-23T02:00:01.943Z,11.93
2023-05-23T02:02:44.596Z,13.55
2023-05-23T02:05:14.217Z,11.60
2023-05-23T02:07:42.667Z,12.70
2023-05-23T02:10:11.841Z,12.80
2023-05-23T02:12:40.313Z,13.30
2023-05-23T02:15:09.418Z,13.25
2023-05-23T02:17:38.766Z,13.23
2023-05-23T02:20:10.269Z,13.35
2023-05-23T02:22:38.676Z,14.13
2023-05-23T02:25:07.826Z,13.90
2023-05-23T02:27:37.634Z,12.70
2023-05-23T02:30:11.653Z,13.18
2023-05-23T02:32:40.083Z,14.82
2023-05-23T02:35:11.027Z,14.38
2023-05-23T02:37:39.577Z,13.43
2023-05-23T02:40:09.669Z,15.45
2023-05-23T02:42:38.430Z,14.32
2023-05-23T02:45:07.386Z,13.95
2023-05-23T02:47:36.366Z,14.05
2023-05-23T02:50:05.017Z,15.43
2023-05-23T02:52:35.829Z,14.77
2023-05-23T02:55:04.295Z,14.18
2023-05-23T02:57:40.041Z,14.13
2023-05-23T03:00:10.293Z,14.82
2023-05-23T03:02:39.072Z,15.38
2023-05-23T03:05:08.994Z,14.23
2023-05-23T03:07:39.194Z,15.73
2023-05-23T03:10:08.622Z,14.80
2023-05-23T03:12:37.217Z,16.40
2023-05-23T03:15:06.382Z,15.50
2023-05-23T03:17:35.188Z,16.80
2023-05-23T03:20:04.165Z,16.48
2023-05-23T03:22:32.810Z,16.77
2023-05-23T03:25:03.026Z,16.15
2023-05-23T03:27:31.819Z,15.80
2023-05-23T03:30:00.400Z,16.50
2023-05-23T03:32:29.379Z,17.75
2023-05-23T03:34:58.098Z,15.15
2023-05-23T03:37:26.804Z,17.42
2023-05-23T03:39:55.394Z,18.10
2023-05-23T03:42:25.605Z,16.95
2023-05-23T03:44:54.374Z,17.13
2023-05-23T03:47:25.489Z,18.70
2023-05-23T03:49:54.804Z,17.80
2023-05-23T03:52:23.541Z,17.13
2023-05-23T03:54:52.063Z,16.98
2023-05-23T03:57:21.339Z,16.10
2023-05-23T03:59:52.329Z,17.92
2023-05-23T04:02:22.129Z,16.98
2023-05-23T04:04:58.897Z,16.85
2023-05-23T04:07:27.668Z,18.02
2023-05-23T04:09:56.499Z,17.13
2023-05-23T04:12:26.283Z,17.58
2023-05-23T04:14:57.767Z,17.73
2023-05-23T04:17:29.716Z,18.65
2023-05-23T04:19:59.007Z,18.02
2023-05-23T04:22:27.454Z,17.70
2023-05-23T04:24:56.051Z,20.65
2023-05-23T04:27:26.083Z,18.23
2023-05-23T04:29:58.239Z,19.98
2023-05-23T04:32:26.841Z,17.85
2023-05-23T04:34:57.127Z,19.00
2023-05-23T04:37:27.639Z,19.40
2023-05-23T04:39:56.681Z,19.40
2023-05-23T04:42:48.868Z,18.85
2023-05-23T04:45:46.527Z,21.27
2023-05-23T04:48:35.219Z,18.33
2023-05-23T04:51:07.910Z,18.38
2023-05-23T04:53:41.248Z,19.05
2023-05-23T04:56:12.395Z,20.23
2023-05-23T04:58:42.306Z,20.17
2023-05-23T05:01:24.671Z,20.00
2023-05-23T05:03:53.910Z,23.33
2023-05-23T05:06:22.439Z,20.45
2023-05-23T05:08:53.202Z,19.63
2023-05-23T05:11:23.489Z,22.23
2023-05-23T05:13:54.078Z,22.20
2023-05-23T05:16:26.683Z,21.23
2023-05-23T05:18:56.088Z,22.00
2023-05-23T05:21:25.231Z,24.35
2023-05-23T05:23:54.601Z,23.85
2023-05-23T05:26:23.701Z,21.75
2023-05-23T05:28:53.120Z,25.65
2023-05-23T05:31:26.825Z,25.85
2023-05-23T05:33:55.364Z,24.60
2023-05-23T05:36:23.825Z,23.45
2023-05-23T05:38:53.186Z,25.20
2023-05-23T05:47:19.007Z,28.15
2023-05-23T05:49:48.253Z,27.15
2023-05-23T05:52:16.704Z,26.35
2023-05-23T05:54:45.277Z,28.95
2023-05-23T05:57:18.075Z,24.48
2023-05-23T05:59:46.833Z,25.85
2023-05-23T06:02:22.904Z,25.02
2023-05-23T06:04:51.740Z,25.38
2023-05-23T06:07:20.358Z,25.90
2023-05-23T06:09:48.837Z,23.92
2023-05-23T06:12:18.410Z,25.73
2023-05-23T06:14:47.945Z,27.10
2023-05-23T06:17:18.429Z,25.52
2023-05-23T06:19:47.120Z,25.08
2023-05-23T06:22:16.733Z,24.30
2023-05-23T06:24:46.593Z,27.13
2023-05-23T06:27:17.025Z,26.65
2023-05-23T06:29:48.180Z,25.75
2023-05-23T06:32:20.751Z,27.95
2023-05-23T06:34:52.638Z,24.95
2023-05-23T06:37:21.055Z,28.30
2023-05-23T06:39:49.607Z,26.42
2023-05-23T06:42:21.451Z,28.45
2023-05-23T06:45:14.972Z,25.13
2023-05-23T06:47:48.538Z,24.88
2023-05-23T06:50:20.240Z,26.58
2023-05-23T06:52:51.092Z,23.55
2023-05-23T06:55:20.436Z,23.42
2023-05-23T06:57:52.368Z,23.30
2023-05-23T07:00:22.969Z,22.55
2023-05-23T07:03:05.431Z,22.88
2023-05-23T07:05:40.097Z,22.98
2023-05-23T07:08:12.152Z,23.02
2023-05-23T07:10:44.118Z,23.27
2023-05-23T07:13:25.560Z,21.75
2023-05-23T07:15:57.593Z,20.08
2023-05-23T07:18:51.385Z,24.52
2023-05-23T07:21:21.530Z,24.70
2023-05-23T07:23:54.966Z,23.23
2023-05-23T07:26:24.439Z,26.88
2023-05-23T07:28:56.677Z,25.13
2023-05-23T07:31:25.501Z,24.85
2023-05-23T07:33:58.594Z,21.42
2023-05-23T07:36:35.873Z,22.45
2023-05-23T07:39:05.626Z,22.65
2023-05-23T07:41:34.373Z,22.08
2023-05-23T07:44:02.946Z,20.40
2023-05-23T07:46:34.750Z,22.83
2023-05-23T07:49:03.258Z,22.65
2023-05-23T07:51:31.736Z,23.27
2023-05-23T07:54:03.278Z,24.80
2023-05-23T07:56:32.124Z,22.35
2023-05-23T07:59:03.000Z,22.48
2023-05-23T08:01:31.612Z,21.55
2023-05-23T08:04:04.886Z,20.98
2023-05-23T08:06:38.692Z,19.55
2023-05-23T08:09:13.350Z,19.65
2023-05-23T08:11:51.988Z,22.25
2023-05-23T08:14:22.771Z,20.25
2023-05-23T08:17:13.900Z,20.40
2023-05-23T08:19:44.916Z,20.48
2023-05-23T08:22:13.775Z,19.67
2023-05-23T08:24:43.762Z,20.67
2023-05-23T08:27:12.612Z,20.75
2023-05-23T08:29:41.451Z,22.55
2023-05-23T08:32:10.402Z,21.50
2023-05-23T08:34:39.257Z,23.17
2023-05-23T08:37:08.259Z,21.30
2023-05-23T08:39:36.858Z,22.48
2023-05-23T08:42:35.434Z,20.92
2023-05-23T08:45:05.506Z,20.60
2023-05-23T08:47:36.048Z,20.10
2023-05-23T08:50:08.070Z,18.25
2023-05-23T08:52:37.160Z,19.55
2023-05-23T08:55:06.599Z,19.25
2023-05-23T08:57:38.151Z,18.65
2023-05-23T09:00:23.410Z,18.88
2023-05-23T09:02:52.832Z,18.42
2023-05-23T09:05:47.659Z,19.40
2023-05-23T09:08:16.804Z,19.73
2023-05-23T09:10:45.984Z,21.00
2023-05-23T09:13:20.568Z,22.63
2023-05-23T09:16:04.860Z,21.40
2023-05-23T09:18:40.562Z,21.45
2023-05-23T09:21:10.152Z,21.90
2023-05-23T09:23:42.803Z,21.25
2023-05-23T09:26:14.296Z,19.98
2023-05-23T09:28:44.605Z,18.85
2023-05-23T09:31:13.502Z,17.80
2023-05-23T09:33:42.603Z,19.42
2023-05-23T09:36:13.749Z,19.00
2023-05-23T09:38:43.217Z,17.08
2023-05-23T09:41:12.854Z,17.83
2023-05-23T09:43:43.492Z,18.25
2023-05-23T09:46:13.920Z,17.75
2023-05-23T09:48:42.893Z,16.02
2023-05-23T09:51:12.528Z,15.85
2023-05-23T09:53:41.079Z,15.82
2023-05-23T09:56:13.259Z,15.50
2023-05-23T09:58:42.406Z,16.05
2023-05-23T10:01:12.336Z,14.43
2023-05-23T10:03:53.749Z,14.88
2023-05-23T10:06:25.726Z,13.95
2023-05-23T10:08:57.370Z,15.98
2023-05-23T10:11:56.213Z,13.77
2023-05-23T10:14:24.700Z,14.43
2023-05-23T10:16:57.662Z,14.27
2023-05-23T10:19:33.712Z,14.80
2023-05-23T10:22:03.729Z,15.23
2023-05-23T10:24:34.840Z,15.93
2023-05-23T10:27:04.578Z,13.90
2023-05-23T10:29:33.702Z,17.02
2023-05-23T10:32:05.711Z,14.50
2023-05-23T10:35:00.256Z,12.85
2023-05-23T10:37:33.691Z,12.55
2023-05-23T10:40:05.549Z,13.23
2023-05-23T10:42:41.662Z,13.60
2023-05-23T10:45:19.476Z,13.43
2023-05-23T10:47:49.262Z,14.27
2023-05-23T10:50:33.853Z,13.60
2023-05-23T10:53:04.046Z,13.55
2023-05-23T10:55:36.895Z,15.10
2023-05-23T10:58:12.119Z,14.15
2023-05-23T11:00:40.868Z,13.93
2023-05-23T11:03:13.595Z,14.95
2023-05-23T11:05:49.931Z,13.70
2023-05-23T11:08:19.404Z,13.98
2023-05-23T11:11:04.658Z,14.20
2023-05-23T11:14:00.227Z,15.32
2023-05-23T11:16:29.841Z,13.00
2023-05-23T11:19:13.311Z,13.70
2023-05-23T11:21:43.779Z,13.80
2023-05-23T11:24:13.226Z,12.77
2023-05-23T11:26:42.370Z,13.75
2023-05-23T11:29:11.805Z,13.65
2023-05-23T11:31:40.806Z,11.93
2023-05-23T11:34:09.434Z,11.18
2023-05-23T11:36:37.977Z,13.60
2023-05-23T11:39:08.545Z,12.68
2023-05-23T11:41:37.056Z,12.98
2023-05-23T11:44:13.745Z,13.68
2023-05-23T11:46:42.178Z,12.52
2023-05-23T11:49:15.101Z,13.73
2023-05-23T11:51:43.788Z,12.98
2023-05-23T11:54:13.630Z,12.90
2023-05-23T11:56:44.524Z,13.48
2023-05-23T11:59:13.018Z,13.95
2023-05-23T12:01:41.778Z,12.73
2023-05-23T12:04:13.118Z,13.60
2023-05-23T12:06:42.493Z,13.65
2023-05-23T12:09:16.584Z,14.10
2023-05-23T12:11:47.335Z,14.57
2023-05-23T12:14:16.790Z,13.85
2023-05-23T12:16:46.936Z,13.90
2023-05-23T12:19:16.636Z,12.25
2023-05-23T12:21:46.188Z,14.10
2023-05-23T12:24:21.411Z,13.40
2023-05-23T12:26:52.859Z,13.38
2023-05-23T12:29:22.496Z,12.93
2023-05-23T12:31:54.218Z,12.57
2023-05-23T12:34:23.005Z,13.32
2023-05-23T12:36:57.142Z,12.65
2023-05-23T12:39:33.736Z,12.88
2023-05-23T12:42:12.779Z,13.95
2023-05-23T12:44:43.843Z,13.98
2023-05-23T12:47:13.439Z,13.70
2023-05-23T12:49:46.642Z,12.13
2023-05-23T12:52:15.115Z,13.27
2023-05-23T12:54:45.186Z,13.65
2023-05-23T12:57:15.128Z,13.80
2023-05-23T12:59:43.979Z,13.05
2023-05-23T13:02:12.908Z,13.65
2023-05-23T13:04:41.750Z,13.48
2023-05-23T13:07:11.486Z,13.35
2023-05-23T13:09:40.647Z,12.98
2023-05-23T13:12:10.562Z,11.52
2023-05-23T13:14:40.200Z,11.60
2023-05-23T13:17:10.612Z,11.63
2023-05-23T13:19:44.711Z,11.70
2023-05-23T13:22:15.282Z,11.95
2023-05-23T13:24:44.491Z,10.60
2023-05-23T13:27:14.554Z,11.65
2023-05-23T13:29:43.141Z,10.88
2023-05-23T13:32:12.123Z,10.75
2023-05-23T13:34:44.855Z,11.82
2023-05-23T13:37:36.971Z,12.25
2023-05-23T13:40:08.581Z,10.85
2023-05-23T13:42:47.191Z,11.90
2023-05-23T13:45:18.800Z,10.80
2023-05-23T13:47:47.894Z,11.57
2023-05-23T13:50:20.160Z,9.90
2023-05-23T13:52:49.665Z,10.52
2023-05-23T13:55:18.987Z,10.35
2023-05-23T13:57:48.993Z,10.35
2023-05-23T14:00:17.810Z,10.90
2023-05-23T14:02:46.382Z,10.10
2023-05-23T14:05:15.636Z,10.05
2023-05-23T14:07:48.743Z,10.18
2023-05-23T14:10:19.736Z,9.77
2023-05-23T14:12:51.236Z,10.20
2023-05-23T14:15:20.297Z,10.20
2023-05-23T14:17:48.772Z,10.38
2023-05-23T14:20:17.291Z,11.25
2023-05-23T14:22:47.013Z,9.43
2023-05-23T14:25:16.650Z,9.15
2023-05-23T14:27:45.445Z,10.40
2023-05-23T14:30:16.209Z,9.75
2023-05-23T14:32:45.206Z,10.27
2023-05-23T14:35:13.954Z,9.95
2023-05-23T14:37:46.860Z,9.65
2023-05-23T14:40:16.806Z,10.20
2023-05-23T14:42:56.797Z,9.45
2023-05-23T14:45:27.548Z,9.50
2023-05-23T14:47:56.652Z,9.20
2023-05-23T14:50:52.581Z,9.15
2023-05-23T14:53:23.960Z,8.50
2023-05-23T14:55:57.750Z,8.13
2023-05-23T14:58:27.679Z,8.05
2023-05-23T15:00:57.571Z,7.55
2023-05-23T15:03:27.024Z,7.72
2023-05-23T15:05:58.112Z,7.93
2023-05-23T15:08:28.796Z,7.68
2023-05-23T15:10:57.641Z,7.65
2023-05-23T15:13:27.376Z,7.57
2023-05-23T15:15:59.414Z,7.22
2023-05-23T15:18:40.883Z,7.00
2023-05-23T15:21:11.862Z,7.13
2023-05-23T15:23:41.704Z,6.13
2023-05-23T15:26:11.454Z,6.35
2023-05-23T15:28:39.918Z,6.20
2023-05-23T15:31:09.839Z,5.97
2023-05-23T15:33:38.910Z,4.75
2023-05-23T15:36:08.148Z,4.75
2023-05-23T15:38:36.833Z,4.57
2023-05-23T15:41:06.337Z,5.10
2023-05-23T15:43:35.586Z,4.68
2023-05-23T15:46:04.597Z,4.72
2023-05-23T15:48:34.853Z,4.78
2023-05-23T15:51:03.406Z,4.55
2023-05-23T15:53:47.875Z,4.50
2023-05-23T15:56:23.737Z,3.92
2023-05-23T15:58:54.239Z,4.32
2023-05-23T16:01:22.806Z,3.92
2023-05-23T16:03:56.093Z,4.50
2023-05-23T16:06:27.797Z,3.78
2023-05-23T16:08:56.262Z,3.70
2023-05-23T16:11:50.428Z,4.05
2023-05-23T16:14:19.737Z,3.50
2023-05-23T16:16:48.183Z,4.00
2023-05-23T16:19:18.157Z,3.65
2023-05-23T16:21:53.550Z,3.60
2023-05-23T16:24:23.046Z,3.53
2023-05-23T16:26:51.825Z,3.15
2023-05-23T16:29:20.826Z,2.75
2023-05-23T16:31:50.252Z,3.00
2023-05-23T16:34:22.678Z,2.88
2023-05-23T16:36:56.129Z,2.50
2023-05-23T16:39:28.777Z,2.25
2023-05-23T16:42:05.964Z,2.28
2023-05-23T16:44:34.489Z,2.70
2023-05-23T16:47:05.436Z,2.65
2023-05-23T16:49:37.664Z,2.40
2023-05-23T16:52:06.649Z,2.60
2023-05-23T16:54:36.993Z,2.50
2023-05-23T16:57:09.081Z,2.50
2023-05-23T16:59:42.168Z,2.47
2023-05-23T17:02:11.912Z,2.55
2023-05-23T17:04:41.938Z,2.55
2023-05-23T17:07:11.664Z,2.67
2023-05-23T17:09:40.548Z,3.03
2023-05-23T17:12:10.652Z,2.72
2023-05-23T17:14:40.605Z,2.28
2023-05-23T17:17:09.078Z,2.63
2023-05-23T17:19:38.503Z,2.67
2023-05-23T17:22:08.675Z,2.80
2023-05-23T17:24:37.707Z,2.67
2023-05-23T17:27:08.144Z,2.60
2023-05-23T17:29:43.025Z,2.88
2023-05-23T17:32:11.530Z,2.55
2023-05-23T17:34:42.553Z,2.90
2023-05-23T17:37:15.212Z,2.47
2023-05-23T17:39:46.502Z,3.25
2023-05-23T17:42:15.219Z,2.80
2023-05-23T17:44:44.654Z,3.00
2023-05-23T17:47:13.703Z,3.08
2023-05-23T17:49:42.825Z,3.17
2023-05-23T17:52:14.909Z,3.20
2023-05-23T17:54:45.021Z,3.53
2023-05-23T17:57:14.079Z,3.20
2023-05-23T17:59:42.693Z,3.40
2023-05-23T18:02:11.639Z,6.57
2023-05-23T18:04:42.977Z,3.38
2023-05-23T18:07:14.845Z,3.20
2023-05-23T18:09:47.980Z,3.08
2023-05-23T18:12:18.041Z,3.15
2023-05-23T18:14:46.711Z,3.30
2023-05-23T18:17:17.361Z,3.33
2023-05-23T18:19:46.494Z,3.30
2023-05-23T18:22:16.578Z,3.30
2023-05-23T18:24:50.693Z,3.45
2023-05-23T18:27:21.814Z,3.70
2023-05-23T18:29:52.206Z,3.20
2023-05-23T18:32:21.480Z,3.45
2023-05-23T18:34:52.194Z,4.15
2023-05-23T18:37:20.570Z,3.60
2023-05-23T18:39:50.786Z,4.47
2023-05-23T18:42:21.502Z,3.80
2023-05-23T18:44:49.953Z,4.15
2023-05-23T18:47:18.396Z,4.03
2023-05-23T18:49:47.057Z,4.15
2023-05-23T18:52:15.838Z,4.20
2023-05-23T18:54:45.105Z,4.53
2023-05-23T18:57:17.802Z,4.00
2023-05-23T18:59:47.335Z,4.30
2023-05-23T19:02:17.356Z,4.30
2023-05-23T19:04:47.918Z,4.57
2023-05-23T19:07:16.437Z,4.68
2023-05-23T19:09:46.963Z,5.10
2023-05-23T19:12:17.675Z,4.85
2023-05-23T19:14:49.226Z,5.13
2023-05-23T19:17:17.821Z,4.53
2023-05-23T19:19:46.708Z,4.97
2023-05-23T19:22:18.441Z,5.03
2023-05-23T19:24:46.950Z,4.88
2023-05-23T19:27:17.672Z,5.03
2023-05-23T19:29:46.246Z,4.63
2023-05-23T19:32:16.656Z,4.53
2023-05-23T19:34:45.582Z,4.93
2023-05-23T19:37:13.968Z,4.50
2023-05-23T19:39:46.030Z,4.50
2023-05-23T19:42:16.910Z,4.60
2023-05-23T19:44:56.793Z,4.25
2023-05-23T19:47:25.268Z,4.60
2023-05-23T19:49:55.365Z,4.45
2023-05-23T19:52:23.919Z,4.65
2023-05-23T19:54:56.044Z,4.07
2023-05-23T19:57:27.048Z,4.07
2023-05-23T19:59:59.078Z,4.50
2023-05-23T20:02:29.785Z,3.50
2023-05-23T20:04:58.443Z,3.65
2023-05-23T20:07:26.995Z,3.53
2023-05-23T20:09:58.396Z,3.40
2023-05-23T20:12:27.222Z,3.97
2023-05-23T20:15:00.740Z,3.80
2023-05-23T20:17:31.250Z,3.25
2023-05-23T20:20:00.317Z,3.55
2023-05-23T20:22:29.067Z,3.92
2023-05-23T20:24:57.934Z,4.10
2023-05-23T20:27:26.844Z,3.53
2023-05-23T20:29:55.330Z,3.80
2023-05-23T20:32:25.317Z,4.63
2023-05-23T20:34:54.831Z,3.78
2023-05-23T20:37:25.445Z,3.83
2023-05-23T20:39:53.938Z,4.22
2023-05-23T20:42:22.650Z,3.97
2023-05-23T20:44:54.352Z,3.70
2023-05-23T20:47:26.642Z,3.90
2023-05-23T20:49:56.051Z,3.80
2023-05-23T20:52:24.594Z,3.60
2023-05-23T20:54:56.098Z,3.50
2023-05-23T20:57:27.527Z,3.85
2023-05-23T20:59:56.475Z,4.27
2023-05-23T21:02:29.545Z,4.10
2023-05-23T21:05:04.859Z,3.60
2023-05-23T21:07:34.376Z,4.13
2023-05-23T21:10:03.641Z,4.03
2023-05-23T21:12:32.406Z,4.07
2023-05-23T21:15:00.972Z,3.60
2023-05-23T21:17:31.125Z,3.97
2023-05-23T21:19:59.756Z,3.73
2023-05-23T21:22:28.617Z,3.90
2023-05-23T21:24:58.043Z,4.23
2023-05-23T21:27:26.884Z,4.73
2023-05-23T21:29:55.505Z,4.50
2023-05-23T21:32:25.407Z,4.60
2023-05-23T21:34:57.345Z,3.87
2023-05-23T21:37:25.806Z,4.57
2023-05-23T21:39:54.286Z,4.67
2023-05-23T21:42:24.861Z,4.00
2023-05-23T21:44:54.057Z,4.20
2023-05-23T21:47:24.656Z,4.13
2023-05-23T21:49:53.458Z,4.30
2023-05-23T21:52:23.650Z,4.70
2023-05-23T21:54:54.539Z,4.57
2023-05-23T21:57:25.229Z,4.20
2023-05-23T22:00:02.032Z,3.90
2023-05-23T22:02:34.032Z,4.47
2023-05-23T22:05:04.613Z,4.73
2023-05-23T22:07:37.295Z,4.60
2023-05-23T22:10:05.983Z,4.40
2023-05-23T22:12:34.400Z,4.47
2023-05-23T22:15:02.957Z,4.60
2023-05-23T22:17:36.359Z,4.80
2023-05-23T22:20:06.461Z,4.80
2023-05-23T22:22:34.911Z,4.23
2023-05-23T22:25:05.472Z,4.03
2023-05-23T22:27:34.102Z,4.33
2023-05-23T22:30:04.828Z,4.10
2023-05-23T22:32:33.559Z,4.17
2023-05-23T22:35:02.191Z,4.27
2023-05-23T22:37:30.824Z,4.47
2023-05-23T22:39:59.580Z,4.80
2023-05-23T22:42:29.486Z,4.57
2023-05-23T22:44:58.040Z,4.70
2023-05-23T22:47:29.360Z,3.97
2023-05-23T22:49:59.262Z,4.23
2023-05-23T22:52:28.525Z,4.57
2023-05-23T22:54:57.097Z,4.90
2023-05-23T22:57:26.887Z,4.93
2023-05-23T22:59:56.705Z,5.10
2023-05-23T23:02:25.237Z,5.07
2023-05-23T23:04:53.737Z,5.17
2023-05-23T23:07:22.156Z,4.97
2023-05-23T23:09:50.692Z,4.90
2023-05-23T23:12:19.447Z,4.67
2023-05-23T23:14:48.024Z,4.33
2023-05-23T23:17:17.822Z,4.50
2023-05-23T23:19:46.940Z,3.90
2023-05-23T23:22:16.662Z,4.90
2023-05-23T23:24:45.405Z,4.67
2023-05-23T23:27:15.021Z,4.60
2023-05-23T23:29:46.336Z,4.30
2023-05-23T23:32:44.333Z,4.60
2023-05-23T23:35:21.305Z,4.53
2023-05-23T23:37:49.712Z,4.40
2023-05-23T23:40:18.325Z,4.33
2023-05-23T23:42:46.747Z,4.37
2023-05-23T23:45:15.170Z,4.70
2023-05-23T23:47:46.304Z,3.97
2023-05-23T23:50:17.026Z,4.00
2023-05-23T23:52:47.888Z,4.30
2023-05-23T23:55:17.450Z,4.00
2023-05-23T23:57:45.914Z,3.90
